Terminal Aerodrome Forecast
Issued by NWS

Home | Current Version | Previous Version | Text Only | Print | Product List | Glossary On
Versions: 1 2 3 4 5 6 7 8 9 10 11 12 13 14 15 16 17 18 19 20 21
837
FTUS44 KCRP 202340
TAFLRD
TAF
KLRD 202340Z 2100/2124 15015KT P6SM SKC
     FM210400 16012KT P6SM SCT006 BKN015
     FM210700 17005KT 4SM BR OVC004
      TEMPO 2109/2113 2SM BR
     FM211500 19008KT 6SM BR BKN008 OVC015
     FM211900 22009G15KT P6SM SCT025=

USA.gov is the U.S. government's official web portal to all federal, state and local government web resources and services.